sensor_id;sensor_type;location;lat;lon;timestamp;pressure;altitude;pressure_sealevel;temperature;humidity
46718;BME280;32448;44.960;-0.698;2023-03-25T00:01:16;101844.63;;;9.14;100.00
46718;BME280;32448;44.960;-0.698;2023-03-25T00:03:43;101847.25;;;9.14;100.00
46718;BME280;32448;44.960;-0.698;2023-03-25T00:06:16;101844.56;;;9.12;100.00
46718;BME280;32448;44.960;-0.698;2023-03-25T00:08:44;101846.34;;;9.13;100.00
46718;BME280;32448;44.960;-0.698;2023-03-25T00:11:13;101833.25;;;9.12;100.00
46718;BME280;32448;44.960;-0.698;2023-03-25T00:13:40;101833.09;;;9.09;100.00
46718;BME280;32448;44.960;-0.698;2023-03-25T00:16:08;101832.22;;;9.08;100.00
46718;BME280;32448;44.960;-0.698;2023-03-25T00:18:36;101825.88;;;9.02;100.00
46718;BME280;32448;44.960;-0.698;2023-03-25T00:21:03;101833.03;;;9.07;100.00
46718;BME280;32448;44.960;-0.698;2023-03-25T00:23:31;101824.31;;;9.07;100.00
46718;BME280;32448;44.960;-0.698;2023-03-25T00:25:58;101813.25;;;9.12;100.00
46718;BME280;32448;44.960;-0.698;2023-03-25T00:28:26;101810.78;;;9.16;100.00
46718;BME280;32448;44.960;-0.698;2023-03-25T00:30:54;101811.72;;;9.18;100.00
46718;BME280;32448;44.960;-0.698;2023-03-25T00:33:24;101813.41;;;9.16;100.00
46718;BME280;32448;44.960;-0.698;2023-03-25T00:35:54;101815.94;;;9.14;100.00
46718;BME280;32448;44.960;-0.698;2023-03-25T00:38:28;101801.25;;;9.16;100.00
46718;BME280;32448;44.960;-0.698;2023-03-25T00:41:11;101795.97;;;9.15;100.00
46718;BME280;32448;44.960;-0.698;2023-03-25T00:43:38;101804.47;;;9.10;100.00
46718;BME280;32448;44.960;-0.698;2023-03-25T00:46:05;101794.19;;;9.13;100.00
46718;BME280;32448;44.960;-0.698;2023-03-25T00:48:32;101803.59;;;9.10;100.00
46718;BME280;32448;44.960;-0.698;2023-03-25T00:50:59;101800.91;;;9.08;100.00
46718;BME280;32448;44.960;-0.698;2023-03-25T00:53:33;101802.47;;;9.03;100.00
46718;BME280;32448;44.960;-0.698;2023-03-25T00:56:00;101809.47;;;9.04;100.00
46718;BME280;32448;44.960;-0.698;2023-03-25T00:58:28;101806.03;;;9.05;100.00
46718;BME280;32448;44.960;-0.698;2023-03-25T01:00:55;101806.06;;;9.07;100.00
46718;BME280;32448;44.960;-0.698;2023-03-25T01:03:26;101796.53;;;9.07;100.00
46718;BME280;32448;44.960;-0.698;2023-03-25T01:05:54;101797.63;;;9.12;100.00
46718;BME280;32448;44.960;-0.698;2023-03-25T01:08:23;101789.78;;;9.12;100.00
46718;BME280;32448;44.960;-0.698;2023-03-25T01:10:51;101794.75;;;9.06;100.00
46718;BME280;32448;44.960;-0.698;2023-03-25T01:13:20;101798.16;;;9.04;100.00
46718;BME280;32448;44.960;-0.698;2023-03-25T01:18:55;101789.25;;;8.99;100.00
46718;BME280;32448;44.960;-0.698;2023-03-25T01:21:23;101792.81;;;9.01;100.00
46718;BME280;32448;44.960;-0.698;2023-03-25T01:27:03;101787.41;;;8.96;100.00
46718;BME280;32448;44.960;-0.698;2023-03-25T01:29:31;101784.72;;;8.95;100.00
46718;BME280;32448;44.960;-0.698;2023-03-25T01:31:58;101789.09;;;8.94;100.00
46718;BME280;32448;44.960;-0.698;2023-03-25T01:34:25;101790.00;;;8.96;100.00
46718;BME280;32448;44.960;-0.698;2023-03-25T01:37:42;101801.25;;;8.95;100.00
46718;BME280;32448;44.960;-0.698;2023-03-25T01:40:11;101797.00;;;8.97;100.00
46718;BME280;32448;44.960;-0.698;2023-03-25T01:42:50;101783.28;;;9.01;100.00
46718;BME280;32448;44.960;-0.698;2023-03-25T01:45:21;101786.00;;;9.04;100.00
46718;BME280;32448;44.960;-0.698;2023-03-25T01:47:51;101775.56;;;9.04;100.00
46718;BME280;32448;44.960;-0.698;2023-03-25T01:54:07;101757.72;;;8.93;100.00
46718;BME280;32448;44.960;-0.698;2023-03-25T02:00:25;101755.28;;;8.97;100.00
46718;BME280;32448;44.960;-0.698;2023-03-25T02:02:52;101750.06;;;8.97;100.00
46718;BME280;32448;44.960;-0.698;2023-03-25T02:08:10;101759.72;;;9.22;100.00
46718;BME280;32448;44.960;-0.698;2023-03-25T02:10:38;101773.19;;;9.33;100.00
46718;BME280;32448;44.960;-0.698;2023-03-25T02:13:05;101768.50;;;9.46;100.00
46718;BME280;32448;44.960;-0.698;2023-03-25T02:15:38;101765.63;;;9.40;100.00
46718;BME280;32448;44.960;-0.698;2023-03-25T02:38:52;101780.06;;;9.08;100.00
46718;BME280;32448;44.960;-0.698;2023-03-25T02:48:57;101763.38;;;9.03;100.00
46718;BME280;32448;44.960;-0.698;2023-03-25T02:51:35;101761.88;;;9.10;100.00
46718;BME280;32448;44.960;-0.698;2023-03-25T02:54:05;101761.75;;;9.07;100.00
46718;BME280;32448;44.960;-0.698;2023-03-25T02:56:35;101760.41;;;9.17;100.00
46718;BME280;32448;44.960;-0.698;2023-03-25T02:59:03;101760.09;;;9.09;100.00
46718;BME280;32448;44.960;-0.698;2023-03-25T03:01:31;101754.03;;;9.10;100.00
46718;BME280;32448;44.960;-0.698;2023-03-25T03:04:01;101756.66;;;9.10;100.00
46718;BME280;32448;44.960;-0.698;2023-03-25T03:06:28;101738.53;;;9.13;100.00
46718;BME280;32448;44.960;-0.698;2023-03-25T03:22:01;101753.63;;;8.99;100.00
46718;BME280;32448;44.960;-0.698;2023-03-25T03:24:30;101749.97;;;8.94;100.00
46718;BME280;32448;44.960;-0.698;2023-03-25T03:27:02;101762.94;;;8.93;100.00
46718;BME280;32448;44.960;-0.698;2023-03-25T03:33:06;101756.00;;;8.93;100.00
46718;BME280;32448;44.960;-0.698;2023-03-25T03:35:36;101767.13;;;8.89;100.00
46718;BME280;32448;44.960;-0.698;2023-03-25T03:38:12;101723.56;;;8.64;100.00
46718;BME280;32448;44.960;-0.698;2023-03-25T03:40:43;101768.72;;;8.86;100.00
46718;BME280;32448;44.960;-0.698;2023-03-25T03:46:19;101763.91;;;8.74;100.00
46718;BME280;32448;44.960;-0.698;2023-03-25T04:30:47;101767.63;;;8.37;100.00
46718;BME280;32448;44.960;-0.698;2023-03-25T04:33:14;101771.88;;;8.35;100.00
46718;BME280;32448;44.960;-0.698;2023-03-25T04:36:42;101777.78;;;8.31;100.00
46718;BME280;32448;44.960;-0.698;2023-03-25T04:39:09;101788.28;;;8.33;100.00
46718;BME280;32448;44.960;-0.698;2023-03-25T04:41:38;101791.91;;;8.36;100.00
46718;BME280;32448;44.960;-0.698;2023-03-25T04:44:05;101792.00;;;8.39;100.00
46718;BME280;32448;44.960;-0.698;2023-03-25T04:46:33;101783.44;;;8.42;100.00
46718;BME280;32448;44.960;-0.698;2023-03-25T04:49:02;101791.47;;;8.47;100.00
46718;BME280;32448;44.960;-0.698;2023-03-25T04:51:31;101794.44;;;8.56;100.00
46718;BME280;32448;44.960;-0.698;2023-03-25T04:55:12;101795.25;;;8.75;100.00
46718;BME280;32448;44.960;-0.698;2023-03-25T04:58:44;101800.91;;;9.08;100.00
46718;BME280;32448;44.960;-0.698;2023-03-25T05:01:22;101807.03;;;9.09;100.00
46718;BME280;32448;44.960;-0.698;2023-03-25T05:03:50;101807.44;;;9.20;100.00
46718;BME280;32448;44.960;-0.698;2023-03-25T05:06:18;101805.25;;;9.30;100.00
46718;BME280;32448;44.960;-0.698;2023-03-25T05:08:54;101808.69;;;9.29;100.00
46718;BME280;32448;44.960;-0.698;2023-03-25T05:11:22;101808.69;;;9.29;100.00
46718;BME280;32448;44.960;-0.698;2023-03-25T05:13:49;101810.41;;;9.29;100.00
46718;BME280;32448;44.960;-0.698;2023-03-25T05:16:16;101814.63;;;9.25;100.00
46718;BME280;32448;44.960;-0.698;2023-03-25T05:18:44;101819.72;;;9.22;100.00
46718;BME280;32448;44.960;-0.698;2023-03-25T05:21:11;101822.22;;;9.19;100.00
46718;BME280;32448;44.960;-0.698;2023-03-25T05:23:40;101832.41;;;9.13;100.00
46718;BME280;32448;44.960;-0.698;2023-03-25T05:26:08;101823.44;;;9.06;100.00
46718;BME280;32448;44.960;-0.698;2023-03-25T05:28:35;101821.44;;;8.99;100.00
46718;BME280;32448;44.960;-0.698;2023-03-25T05:31:02;101817.75;;;8.94;100.00
46718;BME280;32448;44.960;-0.698;2023-03-25T05:33:34;101812.41;;;8.91;100.00
46718;BME280;32448;44.960;-0.698;2023-03-25T05:36:03;101817.50;;;8.88;100.00
46718;BME280;32448;44.960;-0.698;2023-03-25T05:38:30;101813.16;;;8.89;100.00
46718;BME280;32448;44.960;-0.698;2023-03-25T05:40:58;101801.84;;;8.88;100.00
46718;BME280;32448;44.960;-0.698;2023-03-25T05:43:26;101803.50;;;8.86;100.00
46718;BME280;32448;44.960;-0.698;2023-03-25T05:45:53;101795.81;;;8.89;100.00
46718;BME280;32448;44.960;-0.698;2023-03-25T05:48:20;101795.81;;;8.89;100.00
46718;BME280;32448;44.960;-0.698;2023-03-25T05:50:50;101793.22;;;8.89;100.00
46718;BME280;32448;44.960;-0.698;2023-03-25T05:53:17;101790.72;;;8.92;100.00
46718;BME280;32448;44.960;-0.698;2023-03-25T05:55:46;101792.75;;;8.99;100.00
46718;BME280;32448;44.960;-0.698;2023-03-25T05:58:17;101799.13;;;9.07;100.00
46718;BME280;32448;44.960;-0.698;2023-03-25T06:00:45;101807.28;;;9.15;100.00
46718;BME280;32448;44.960;-0.698;2023-03-25T06:03:14;101810.06;;;9.20;100.00
46718;BME280;32448;44.960;-0.698;2023-03-25T06:05:41;101810.13;;;9.21;100.00
46718;BME280;32448;44.960;-0.698;2023-03-25T06:08:10;101814.28;;;9.16;100.00
46718;BME280;32448;44.960;-0.698;2023-03-25T06:10:37;101808.41;;;9.22;100.00
46718;BME280;32448;44.960;-0.698;2023-03-25T06:13:04;101813.50;;;9.19;100.00
46718;BME280;32448;44.960;-0.698;2023-03-25T06:15:31;101807.44;;;9.20;100.00
46718;BME280;32448;44.960;-0.698;2023-03-25T06:18:05;101811.97;;;9.24;100.00
46718;BME280;32448;44.960;-0.698;2023-03-25T06:20:32;101821.50;;;9.23;100.00
46718;BME280;32448;44.960;-0.698;2023-03-25T06:22:59;101825.84;;;9.23;100.00
46718;BME280;32448;44.960;-0.698;2023-03-25T06:25:27;101824.31;;;9.28;100.00
46718;BME280;32448;44.960;-0.698;2023-03-25T06:27:56;101829.47;;;9.26;100.00
46718;BME280;32448;44.960;-0.698;2023-03-25T06:30:29;101824.00;;;9.20;100.00
46718;BME280;32448;44.960;-0.698;2023-03-25T06:32:56;101820.41;;;9.17;100.00
46718;BME280;32448;44.960;-0.698;2023-03-25T06:35:25;101824.88;;;9.21;100.00
46718;BME280;32448;44.960;-0.698;2023-03-25T06:37:52;101832.97;;;9.27;100.00
46718;BME280;32448;44.960;-0.698;2023-03-25T06:40:27;101830.44;;;9.30;100.00
46718;BME280;32448;44.960;-0.698;2023-03-25T06:42:54;101822.13;;;9.38;100.00
46718;BME280;32448;44.960;-0.698;2023-03-25T06:45:41;101827.44;;;9.41;100.00
46718;BME280;32448;44.960;-0.698;2023-03-25T06:48:22;101831.06;;;9.45;100.00
46718;BME280;32448;44.960;-0.698;2023-03-25T06:50:49;101829.56;;;9.52;100.00
46718;BME280;32448;44.960;-0.698;2023-03-25T06:53:16;101820.34;;;9.61;100.00
46718;BME280;32448;44.960;-0.698;2023-03-25T06:55:43;101827.53;;;9.67;100.00
46718;BME280;32448;44.960;-0.698;2023-03-25T06:58:11;101829.00;;;9.82;100.00
46718;BME280;32448;44.960;-0.698;2023-03-25T07:00:38;101817.38;;;9.98;100.00
46718;BME280;32448;44.960;-0.698;2023-03-25T07:03:05;101833.50;;;10.10;100.00
46718;BME280;32448;44.960;-0.698;2023-03-25T07:05:33;101829.69;;;10.25;100.00
46718;BME280;32448;44.960;-0.698;2023-03-25T07:08:00;101811.47;;;10.26;100.00
46718;BME280;32448;44.960;-0.698;2023-03-25T07:10:28;101813.91;;;10.47;100.00
46718;BME280;32448;44.960;-0.698;2023-03-25T07:12:55;101818.38;;;10.51;100.00
46718;BME280;32448;44.960;-0.698;2023-03-25T07:15:22;101834.00;;;10.48;100.00
46718;BME280;32448;44.960;-0.698;2023-03-25T07:17:53;101829.00;;;10.55;100.00
46718;BME280;32448;44.960;-0.698;2023-03-25T07:20:21;101831.88;;;10.63;100.00
46718;BME280;32448;44.960;-0.698;2023-03-25T07:22:53;101831.28;;;10.72;100.00
46718;BME280;32448;44.960;-0.698;2023-03-25T07:25:22;101829.91;;;10.83;100.00
46718;BME280;32448;44.960;-0.698;2023-03-25T07:27:54;101839.22;;;11.00;100.00
46718;BME280;32448;44.960;-0.698;2023-03-25T07:30:26;101832.81;;;11.19;100.00
46718;BME280;32448;44.960;-0.698;2023-03-25T07:32:53;101827.63;;;11.20;100.00
46718;BME280;32448;44.960;-0.698;2023-03-25T07:35:24;101819.13;;;11.26;100.00
46718;BME280;32448;44.960;-0.698;2023-03-25T07:37:59;101826.69;;;11.45;100.00
46718;BME280;32448;44.960;-0.698;2023-03-25T07:40:26;101831.06;;;11.46;100.00
46718;BME280;32448;44.960;-0.698;2023-03-25T07:42:53;101816.31;;;11.48;100.00
46718;BME280;32448;44.960;-0.698;2023-03-25T07:45:27;101822.31;;;11.46;100.00
46718;BME280;32448;44.960;-0.698;2023-03-25T07:47:54;101820.06;;;11.58;100.00
46718;BME280;32448;44.960;-0.698;2023-03-25T07:50:21;101834.56;;;11.75;100.00
46718;BME280;32448;44.960;-0.698;2023-03-25T07:52:51;101837.50;;;11.86;100.00
46718;BME280;32448;44.960;-0.698;2023-03-25T07:55:19;101842.56;;;12.10;100.00
46718;BME280;32448;44.960;-0.698;2023-03-25T07:57:46;101842.44;;;12.38;100.00
46718;BME280;32448;44.960;-0.698;2023-03-25T08:00:17;101827.72;;;12.43;100.00
46718;BME280;32448;44.960;-0.698;2023-03-25T08:02:48;101824.59;;;12.56;100.00
46718;BME280;32448;44.960;-0.698;2023-03-25T08:05:17;101830.91;;;12.64;100.00
46718;BME280;32448;44.960;-0.698;2023-03-25T08:07:50;101822.16;;;12.64;100.00
46718;BME280;32448;44.960;-0.698;2023-03-25T08:10:20;101826.50;;;12.63;100.00
46718;BME280;32448;44.960;-0.698;2023-03-25T08:12:50;101823.09;;;12.66;100.00
46718;BME280;32448;44.960;-0.698;2023-03-25T08:15:18;101827.31;;;12.61;100.00
46718;BME280;32448;44.960;-0.698;2023-03-25T08:17:47;101830.94;;;12.66;100.00
46718;BME280;32448;44.960;-0.698;2023-03-25T08:20:15;101846.13;;;12.77;100.00
46718;BME280;32448;44.960;-0.698;2023-03-25T08:22:46;101848.69;;;12.76;100.00
46718;BME280;32448;44.960;-0.698;2023-03-25T08:25:14;101855.75;;;12.79;100.00
46718;BME280;32448;44.960;-0.698;2023-03-25T08:27:43;101848.84;;;12.82;100.00
46718;BME280;32448;44.960;-0.698;2023-03-25T08:30:13;101847.47;;;12.98;100.00
46718;BME280;32448;44.960;-0.698;2023-03-25T08:32:47;101853.75;;;13.04;100.00
46718;BME280;32448;44.960;-0.698;2023-03-25T08:35:26;101856.03;;;13.24;100.00
46718;BME280;32448;44.960;-0.698;2023-03-25T08:37:55;101852.94;;;13.41;100.00
46718;BME280;32448;44.960;-0.698;2023-03-25T08:40:26;101856.06;;;13.64;100.00
46718;BME280;32448;44.960;-0.698;2023-03-25T08:42:57;101865.59;;;13.61;100.00
46718;BME280;32448;44.960;-0.698;2023-03-25T08:45:26;101856.13;;;13.67;100.00
46718;BME280;32448;44.960;-0.698;2023-03-25T08:48:06;101854.44;;;13.69;100.00
46718;BME280;32448;44.960;-0.698;2023-03-25T08:50:41;101848.47;;;13.78;100.00
46718;BME280;32448;44.960;-0.698;2023-03-25T08:53:13;101850.84;;;13.66;100.00
46718;BME280;32448;44.960;-0.698;2023-03-25T08:55:46;101836.91;;;13.70;100.00
46718;BME280;32448;44.960;-0.698;2023-03-25T08:58:21;101836.91;;;13.70;100.00
46718;BME280;32448;44.960;-0.698;2023-03-25T09:00:53;101837.00;;;13.74;100.00
46718;BME280;32448;44.960;-0.698;2023-03-25T09:03:23;101834.72;;;13.90;100.00
46718;BME280;32448;44.960;-0.698;2023-03-25T09:05:54;101824.63;;;14.11;100.00
46718;BME280;32448;44.960;-0.698;2023-03-25T09:08:22;101828.16;;;14.14;100.00
46718;BME280;32448;44.960;-0.698;2023-03-25T09:10:50;101827.28;;;14.12;100.00
46718;BME280;32448;44.960;-0.698;2023-03-25T09:13:18;101839.22;;;13.97;100.00
46718;BME280;32448;44.960;-0.698;2023-03-25T09:15:49;101834.59;;;13.85;100.00
46718;BME280;32448;44.960;-0.698;2023-03-25T09:18:22;101838.75;;;13.74;100.00
46718;BME280;32448;44.960;-0.698;2023-03-25T09:20:50;101836.00;;;13.68;100.00
46718;BME280;32448;44.960;-0.698;2023-03-25T09:23:19;101837.66;;;13.64;100.00
46718;BME280;32448;44.960;-0.698;2023-03-25T09:25:47;101830.94;;;13.77;100.00
46718;BME280;32448;44.960;-0.698;2023-03-25T09:28:14;101845.84;;;13.78;100.00
46718;BME280;32448;44.960;-0.698;2023-03-25T09:30:45;101845.06;;;13.83;100.00
46718;BME280;32448;44.960;-0.698;2023-03-25T09:33:15;101853.16;;;13.93;100.00
46718;BME280;32448;44.960;-0.698;2023-03-25T09:35:55;101841.19;;;14.07;100.00
46718;BME280;32448;44.960;-0.698;2023-03-25T09:38:24;101835.75;;;13.98;100.00
46718;BME280;32448;44.960;-0.698;2023-03-25T09:40:54;101834.09;;;14.04;100.00
46718;BME280;32448;44.960;-0.698;2023-03-25T09:50:35;101829.44;;;14.33;100.00
46718;BME280;32448;44.960;-0.698;2023-03-25T09:55:57;101837.88;;;14.62;100.00
46718;BME280;32448;44.960;-0.698;2023-03-25T09:58:39;101826.50;;;14.65;100.00
46718;BME280;32448;44.960;-0.698;2023-03-25T10:01:22;101828.25;;;14.64;100.00
46718;BME280;32448;44.960;-0.698;2023-03-25T10:03:59;101817.94;;;14.76;100.00
46718;BME280;32448;44.960;-0.698;2023-03-25T10:06:30;101820.09;;;15.03;100.00
46718;BME280;32448;44.960;-0.698;2023-03-25T10:11:38;101819.44;;;15.16;100.00
46718;BME280;32448;44.960;-0.698;2023-03-25T10:14:26;101817.63;;;15.12;100.00
46718;BME280;32448;44.960;-0.698;2023-03-25T10:19:55;101804.06;;;15.48;100.00
46718;BME280;32448;44.960;-0.698;2023-03-25T10:24:58;101801.63;;;15.59;100.00
46718;BME280;32448;44.960;-0.698;2023-03-25T10:27:31;101796.38;;;15.60;100.00
46718;BME280;32448;44.960;-0.698;2023-03-25T10:30:17;101801.56;;;15.54;100.00
46718;BME280;32448;44.960;-0.698;2023-03-25T10:35:21;101810.44;;;15.61;100.00
46718;BME280;32448;44.960;-0.698;2023-03-25T10:38:06;101818.31;;;15.56;100.00
46718;BME280;32448;44.960;-0.698;2023-03-25T10:40:41;101816.69;;;15.71;100.00
46718;BME280;32448;44.960;-0.698;2023-03-25T10:45:50;101817.72;;;15.82;100.00
46718;BME280;32448;44.960;-0.698;2023-03-25T10:48:28;101824.00;;;15.93;100.00
46718;BME280;32448;44.960;-0.698;2023-03-25T10:51:11;101813.59;;;16.05;100.00
46718;BME280;32448;44.960;-0.698;2023-03-25T10:53:39;101822.53;;;16.18;100.00
46718;BME280;32448;44.960;-0.698;2023-03-25T10:56:11;101814.88;;;16.41;100.00
46718;BME280;32448;44.960;-0.698;2023-03-25T10:58:40;101812.06;;;16.22;100.00
46718;BME280;32448;44.960;-0.698;2023-03-25T11:01:11;101805.84;;;16.17;100.00
46718;BME280;32448;44.960;-0.698;2023-03-25T11:03:39;101800.66;;;16.26;100.00
46718;BME280;32448;44.960;-0.698;2023-03-25T11:06:20;101803.34;;;16.31;100.00
46718;BME280;32448;44.960;-0.698;2023-03-25T11:09:09;101789.38;;;16.41;100.00
46718;BME280;32448;44.960;-0.698;2023-03-25T11:11:38;101787.75;;;16.60;100.00
46718;BME280;32448;44.960;-0.698;2023-03-25T11:14:05;101790.56;;;16.73;100.00
46718;BME280;32448;44.960;-0.698;2023-03-25T11:16:34;101799.31;;;16.71;100.00
46718;BME280;32448;44.960;-0.698;2023-03-25T11:19:02;101789.53;;;16.61;100.00
46718;BME280;32448;44.960;-0.698;2023-03-25T11:21:34;101800.03;;;16.53;100.00
46718;BME280;32448;44.960;-0.698;2023-03-25T11:24:04;101790.41;;;16.60;100.00
46718;BME280;32448;44.960;-0.698;2023-03-25T11:26:35;101801.94;;;16.69;100.00
46718;BME280;32448;44.960;-0.698;2023-03-25T11:29:05;101783.56;;;16.79;100.00
46718;BME280;32448;44.960;-0.698;2023-03-25T11:31:34;101777.09;;;16.45;100.00
46718;BME280;32448;44.960;-0.698;2023-03-25T11:36:39;101779.84;;;16.57;100.00
46718;BME280;32448;44.960;-0.698;2023-03-25T11:41:50;101780.47;;;16.30;100.00
46718;BME280;32448;44.960;-0.698;2023-03-25T11:44:20;101778.72;;;16.35;100.00
46718;BME280;32448;44.960;-0.698;2023-03-25T11:47:11;101770.25;;;16.68;100.00
46718;BME280;32448;44.960;-0.698;2023-03-25T11:49:46;101769.41;;;16.72;100.00
46718;BME280;32448;44.960;-0.698;2023-03-25T11:52:23;101753.59;;;16.75;100.00
46718;BME280;32448;44.960;-0.698;2023-03-25T11:54:54;101754.69;;;17.04;100.00
46718;BME280;32448;44.960;-0.698;2023-03-25T11:57:23;101759.97;;;17.04;100.00
46718;BME280;32448;44.960;-0.698;2023-03-25T12:00:03;101766.13;;;17.03;100.00
46718;BME280;32448;44.960;-0.698;2023-03-25T12:02:38;101756.31;;;16.86;100.00
46718;BME280;32448;44.960;-0.698;2023-03-25T12:07:45;101758.00;;;16.73;100.00
46718;BME280;32448;44.960;-0.698;2023-03-25T12:10:39;101746.66;;;16.86;100.00
46718;BME280;32448;44.960;-0.698;2023-03-25T12:15:43;101731.66;;;16.84;100.00
46718;BME280;32448;44.960;-0.698;2023-03-25T12:20:49;101734.34;;;16.90;100.00
46718;BME280;32448;44.960;-0.698;2023-03-25T12:26:16;101725.59;;;17.03;100.00
46718;BME280;32448;44.960;-0.698;2023-03-25T12:29:00;101727.41;;;17.08;100.00
46718;BME280;32448;44.960;-0.698;2023-03-25T12:34:24;101724.75;;;17.01;100.00
46718;BME280;32448;44.960;-0.698;2023-03-25T12:37:02;101718.50;;;16.88;100.00
46718;BME280;32448;44.960;-0.698;2023-03-25T12:42:28;101702.66;;;16.91;100.00
46718;BME280;32448;44.960;-0.698;2023-03-25T12:47:42;101672.78;;;17.04;100.00
46718;BME280;32448;44.960;-0.698;2023-03-25T12:50:18;101664.03;;;17.12;100.00
46718;BME280;32448;44.960;-0.698;2023-03-25T13:00:48;101657.84;;;17.14;100.00
46718;BME280;32448;44.960;-0.698;2023-03-25T13:03:29;101649.97;;;17.19;100.00
46718;BME280;32448;44.960;-0.698;2023-03-25T13:08:43;101651.75;;;17.21;100.00
46718;BME280;32448;44.960;-0.698;2023-03-25T13:13:50;101637.56;;;16.98;100.00
46718;BME280;32448;44.960;-0.698;2023-03-25T13:16:20;101644.59;;;16.96;100.00
46718;BME280;32448;44.960;-0.698;2023-03-25T13:19:09;101641.03;;;16.88;100.00
46718;BME280;32448;44.960;-0.698;2023-03-25T13:21:40;101632.25;;;16.95;100.00
46718;BME280;32448;44.960;-0.698;2023-03-25T13:24:17;101641.06;;;16.95;100.00
46718;BME280;32448;44.960;-0.698;2023-03-25T13:26:45;101627.00;;;17.04;100.00
46718;BME280;32448;44.960;-0.698;2023-03-25T13:31:40;101607.66;;;17.08;100.00
46718;BME280;32448;44.960;-0.698;2023-03-25T13:34:20;101596.16;;;16.95;100.00
46718;BME280;32448;44.960;-0.698;2023-03-25T13:36:55;101596.16;;;16.97;100.00
46718;BME280;32448;44.960;-0.698;2023-03-25T13:39:26;101575.06;;;16.98;100.00
46718;BME280;32448;44.960;-0.698;2023-03-25T13:42:05;101562.72;;;17.02;100.00
46718;BME280;32448;44.960;-0.698;2023-03-25T13:44:38;101556.59;;;17.15;100.00
46718;BME280;32448;44.960;-0.698;2023-03-25T13:47:23;101569.88;;;17.33;100.00
46718;BME280;32448;44.960;-0.698;2023-03-25T13:49:59;101559.31;;;17.55;100.00
46718;BME280;32448;44.960;-0.698;2023-03-25T13:52:50;101558.41;;;17.57;100.00
46718;BME280;32448;44.960;-0.698;2023-03-25T13:55:25;101561.97;;;17.44;100.00
46718;BME280;32448;44.960;-0.698;2023-03-25T14:03:45;101574.28;;;17.48;100.00
46718;BME280;32448;44.960;-0.698;2023-03-25T14:09:05;101574.28;;;17.42;100.00
46718;BME280;32448;44.960;-0.698;2023-03-25T14:11:43;101571.63;;;17.42;100.00
46718;BME280;32448;44.960;-0.698;2023-03-25T14:14:16;101555.75;;;17.36;100.00
46718;BME280;32448;44.960;-0.698;2023-03-25T14:16:49;101569.00;;;17.40;100.00
46718;BME280;32448;44.960;-0.698;2023-03-25T14:19:31;101554.88;;;17.37;100.00
46718;BME280;32448;44.960;-0.698;2023-03-25T14:21:59;101549.63;;;17.41;100.00
46718;BME280;32448;44.960;-0.698;2023-03-25T14:24:34;101548.72;;;17.38;100.00
46718;BME280;32448;44.960;-0.698;2023-03-25T14:27:04;101544.31;;;17.37;100.00
46718;BME280;32448;44.960;-0.698;2023-03-25T14:29:37;101548.72;;;17.47;100.00
46718;BME280;32448;44.960;-0.698;2023-03-25T14:32:51;101543.47;;;17.53;100.00
46718;BME280;32448;44.960;-0.698;2023-03-25T14:34:52;101540.88;;;17.65;100.00
46718;BME280;32448;44.960;-0.698;2023-03-25T14:37:27;101547.03;;;17.72;100.00
46718;BME280;32448;44.960;-0.698;2023-03-25T14:39:56;101553.19;;;17.66;100.00
46718;BME280;32448;44.960;-0.698;2023-03-25T14:42:40;101549.66;;;17.75;100.00
46718;BME280;32448;44.960;-0.698;2023-03-25T14:47:55;101533.75;;;17.37;100.00
46718;BME280;32448;44.960;-0.698;2023-03-25T14:52:56;101526.66;;;17.08;100.00
46718;BME280;32448;44.960;-0.698;2023-03-25T14:55:28;101524.88;;;17.07;100.00
46718;BME280;32448;44.960;-0.698;2023-03-25T14:58:00;101528.41;;;17.06;100.00
46718;BME280;32448;44.960;-0.698;2023-03-25T15:00:30;101525.75;;;17.00;100.00
46718;BME280;32448;44.960;-0.698;2023-03-25T15:03:04;101518.66;;;16.83;100.00
46718;BME280;32448;44.960;-0.698;2023-03-25T15:05:35;101514.25;;;16.83;100.00
46718;BME280;32448;44.960;-0.698;2023-03-25T15:08:11;101516.91;;;16.86;100.00
46718;BME280;32448;44.960;-0.698;2023-03-25T15:10:41;101522.22;;;16.98;100.00
46718;BME280;32448;44.960;-0.698;2023-03-25T15:13:29;101518.72;;;16.99;100.00
46718;BME280;32448;44.960;-0.698;2023-03-25T15:16:02;101517.84;;;16.99;100.00
46718;BME280;32448;44.960;-0.698;2023-03-25T15:26:16;101482.56;;;16.77;100.00
46718;BME280;32448;44.960;-0.698;2023-03-25T15:28:57;101491.38;;;16.78;100.00
46718;BME280;32448;44.960;-0.698;2023-03-25T15:34:22;101470.28;;;16.88;100.00
46718;BME280;32448;44.960;-0.698;2023-03-25T15:43:38;101471.88;;;16.59;100.00
46718;BME280;32448;44.960;-0.698;2023-03-25T15:50:58;101481.56;;;16.55;100.00
46718;BME280;32448;44.960;-0.698;2023-03-25T15:56:10;101477.13;;;16.50;100.00
46718;BME280;32448;44.960;-0.698;2023-03-25T16:01:23;101469.16;;;16.36;100.00
46718;BME280;32448;44.960;-0.698;2023-03-25T16:04:15;101463.91;;;16.34;100.00
46718;BME280;32448;44.960;-0.698;2023-03-25T16:06:43;101470.00;;;16.29;100.00
46718;BME280;32448;44.960;-0.698;2023-03-25T16:09:19;101461.25;;;16.34;100.00
46718;BME280;32448;44.960;-0.698;2023-03-25T16:11:47;101448.06;;;16.37;100.00
46718;BME280;32448;44.960;-0.698;2023-03-25T16:14:15;101438.38;;;16.38;100.00
46718;BME280;32448;44.960;-0.698;2023-03-25T16:16:45;101439.25;;;16.37;100.00
46718;BME280;32448;44.960;-0.698;2023-03-25T16:19:16;101433.09;;;16.35;100.00
46718;BME280;32448;44.960;-0.698;2023-03-25T16:24:58;101425.19;;;16.36;100.00
46718;BME280;32448;44.960;-0.698;2023-03-25T16:27:36;101421.72;;;16.44;100.00
46718;BME280;32448;44.960;-0.698;2023-03-25T16:32:48;101408.47;;;16.30;100.00
46718;BME280;32448;44.960;-0.698;2023-03-25T16:35:22;101411.06;;;16.24;100.00